Nearby METAR Reports

 

KCMA - Camarillo, California, USA
Distance from station: WSW 4mi, 7km
Updated: Mon, 30-Mar-2020 9:55am PDT
Clear
Clear
 Wind from calm
Wind: Calm
Temperature: 61°F , 16°C
Dew Point: 48°F , 9°C
Humidity: 63%
Barometer: 30.24 inHg , 1024 hPa
Clouds: Clear
Visibility: 10 miles , 16 km
2020/03/30 16:55 KCMA 301655Z 00000KT 10SM CLR 16/09 A3024 RMK AO2 SLP249 T01610089
KNTD - Point Mugu Nas, California, USA
Distance from station: SSW 9mi, 15km
Updated: Mon, 30-Mar-2020 9:52am PDT
Few Clouds
Few Clouds
 Wind from calm
Wind: Calm
Temperature: 59°F , 15°C
Dew Point: 48°F , 9°C
Humidity: 68%
Barometer: 30.25 inHg , 1024.4 hPa
Clouds: Few Clouds
Visibility: 7 miles , 11 km
Cloud details: Few Clouds 25000 ft
2020/03/30 16:52 KNTD 301652Z 00000KT 7SM FEW250 15/09 A3025 RMK AO2 SLP245 T01500094 $
 
KOXR - Oxnard, California, USA
Distance from station: WSW 10mi, 16km
Updated: Mon, 30-Mar-2020 9:51am PDT
Clear
Clear
 Wind from S
Wind: S 5 mph , 7 km/h
Temperature: 57°F , 14°C
Dew Point: 48°F , 9°C
Humidity: 72%
Barometer: 30.25 inHg , 1024.4 hPa
Clouds: Clear
Visibility: 10 miles , 16 km
2020/03/30 16:51 KOXR 301651Z 18004KT 10SM CLR 14/09 A3025 RMK AO2 SLP242 T01440089
KVNY - Van Nuys, California, USA
Distance from station: E 31mi, 50km
Updated: Mon, 30-Mar-2020 9:51am PDT
Clear
Clear
 Wind from NNE
Wind: NNE 3 mph , 6 km/h
Temperature: 59°F , 15°C
Dew Point: 43°F , 6°C
Humidity: 55%
Barometer: 30.23 inHg , 1023.7 hPa
Clouds: Clear
Visibility: 10 miles , 16 km
2020/03/30 16:51 KVNY 301651Z 02003KT 10SM CLR 15/06 A3023 RMK AO2 SLP234 T01500056
 
KWHP - La / Whiteman, California, USA
Distance from station: E 35mi, 56km
Updated: Mon, 30-Mar-2020 9:55am PDT
Clear
Clear
 Wind from calm
Wind: Calm
Temperature: 55°F , 13°C
Dew Point: 37°F , 3°C
Humidity: 51%
Barometer: 30.27 inHg , 1025.1 hPa
Clouds: Clear
Visibility: 10 miles , 16 km
2020/03/30 16:55 KWHP 301655Z 00000KT 10SM SKC 13/03 A3027
KSMO - Santa Monica, California, USA
Distance from station: ESE 36mi, 58km
Updated: Mon, 30-Mar-2020 9:51am PDT
Clear
Clear
 Wind from ESE
Wind: ESE 6 mph , 9 km/h
Temperature: 61°F , 16°C
Dew Point: 48°F , 9°C
Humidity: 63%
Barometer: 30.25 inHg , 1024.4 hPa
Clouds: Clear
Visibility: 10 miles , 16 km
2020/03/30 16:51 KSMO 301651Z 11005KT 10SM CLR 16/09 A3025 RMK AO2 SLP242 T01560089
 
KBUR - Burbank, California, USA
Distance from station: E 38mi, 61km
Updated: Mon, 30-Mar-2020 9:53am PDT
Clear
Clear
 Wind from calm
Wind: Calm
Temperature: 57°F , 14°C
Dew Point: 43°F , 6°C
Humidity: 59%
Barometer: 30.24 inHg , 1024 hPa
Clouds: Clear
Visibility: 10 miles , 16 km
2020/03/30 16:53 KBUR 301653Z 00000KT 10SM CLR 14/06 A3024 RMK AO2 SLP232 T01440061
KSDB - Sandberg, California, USA
Distance from station: NNE 40mi, 64km
Updated: Mon, 30-Mar-2020 9:53am PDT
Clear
Clear
 Wind from NW
Wind: NW 12 mph , 19 km/h
Temperature: 50°F , 10°C
Wind Chill: 45°F , 7°C
Dew Point: 32°F , 0°C
Humidity: 50%
Barometer: 30.27 inHg , 1025.1 hPa
Clouds: Clear
Visibility: 10 miles , 16 km
2020/03/30 16:53 KSDB 301653Z AUTO 32010KT 10SM CLR 10/00 A3027 RMK AO2 SLP233 T01000000
 
KLAX - Los Angeles, California, USA
Distance from station: ESE 42mi, 68km
Updated: Mon, 30-Mar-2020 9:53am PDT
Few Clouds
Few Clouds
 Wind from E
Wind: E 7 mph , 11 km/h
Temperature: 63°F , 17°C
Dew Point: 48°F , 9°C
Humidity: 59%
Barometer: 30.24 inHg , 1024 hPa
Clouds: Few Clouds
Visibility: 10 miles , 16 km
Cloud details: Few Clouds 1700 ft
2020/03/30 16:53 KLAX 301653Z 08006KT 10SM FEW017 17/09 A3024 RMK AO2 SLP240 T01720094
KCQT - Los Angeles, California, USA
Distance from station: ESE 45mi, 73km
Updated: Mon, 30-Mar-2020 9:52am PDT
Clear
Clear
 Wind from calm
Wind: Calm
Temperature: 64°F , 18°C
Dew Point: 46°F , 8°C
Humidity: 52%
Barometer: 30.24 inHg , 1024 hPa
Clouds: Clear
Visibility: 10 miles , 16 km
2020/03/30 16:52 KCQT 301652Z AUTO 00000KT 10SM CLR 18/08 A3024 RMK AO2 SLP237 T01780083
 
KHHR - Hawthorne, California, USA
Distance from station: ESE 45mi, 73km
Updated: Mon, 30-Mar-2020 9:53am PDT
Clear
Clear
 Wind from calm
Wind: Calm
Temperature: 63°F , 17°C
Dew Point: 48°F , 9°C
Humidity: 59%
Barometer: 30.25 inHg , 1024.4 hPa
Clouds: Clear
Visibility: 10 miles , 16 km
2020/03/30 16:53 KHHR 301653Z 00000KT 10SM CLR 17/09 A3025 RMK AO2 SLP243 T01670089
KSBA - Santa Barbara, California, USA
Distance from station: WNW 49mi, 79km
Updated: Mon, 30-Mar-2020 9:53am PDT
Clear
Clear
 Wind from ESE
Wind: ESE 7 mph , 11 km/h
Temperature: 57°F , 14°C
Dew Point: 50°F , 10°C
Humidity: 77%
Barometer: 30.24 inHg , 1024 hPa
Clouds: Clear
Visibility: 10 miles , 16 km
2020/03/30 16:53 KSBA 301653Z 12006KT 10SM CLR 14/10 A3024 RMK AO2 SLP239 T01440100